Карточка аэропорта UASS

Внимание!
Информация на этой странице в стадии наполнения.
Если вы не увидели какой-то информации, или заметили неточность - пожалуйста сообщите нам!
Спасибо!
Команда RU-STAFF
Название аэропортаСемей
Название аэропорта (англ.)Semey
Превышение764 ft. (232.9 m.)
Координаты50°21.018', 80°13.776'
Высота перехода10000ft
Эшелон переходаFL120, QNH<733:FL130
Коды ответчика7254-7257, 0674-0677
Зона ОрВДАлматы РПИ (UAAA)
Данные METARUASS 291400Z 26004MPS CAVOK 19/08 Q1015 NOSIG RMK QFE743/0990
Проноз погоды (TAF)
NOTAMshow/hide NOTAM
AWOS   TABLE

Информация о ВПП


Диспетчерские позиции




Спутниковое изображение